Time;durP1;ratioP1;P1;durP2;ratioP2;P2;SDS_P1;SDS_P2;PMS_P1;PMS_P2;Temp;Humidity;BMP_temperature;BMP_pressure;BME280_temperature;BME280_humidity;BME280_pressure;Samples;Min_cycle;Max_cycle;Signal;HPM_P1;HPM_P2
2024/01/19 00:00:32;;;;;;;6.03;1.33;;;0.90;99.90;;;;;;5012681;28;20026;-73
2024/01/19 00:02:57;;;;;;;2.75;1.13;;;0.90;99.90;;;;;;5007843;28;20034;-72
2024/01/19 00:05:23;;;;;;;7.88;1.08;;;0.90;99.90;;;;;;5017209;28;20026;-73
2024/01/19 00:07:49;;;;;;;8.57;0.75;;;1.00;99.90;;;;;;5013234;28;20505;-73
2024/01/19 00:10:14;;;;;;;1.40;0.47;;;0.90;99.90;;;;;;5014974;28;20050;-72
2024/01/19 00:12:40;;;;;;;6.38;0.75;;;0.90;99.90;;;;;;5022184;28;20785;-73
2024/01/19 00:15:09;;;;;;;3.45;0.63;;;0.80;99.90;;;;;;5019429;28;20700;-73
2024/01/19 00:17:35;;;;;;;5.28;0.68;;;0.80;99.90;;;;;;5017009;28;20045;-73
2024/01/19 00:20:01;;;;;;;4.10;1.05;;;0.70;99.90;;;;;;5006988;28;20045;-72
2024/01/19 00:22:27;;;;;;;2.67;0.50;;;0.70;99.90;;;;;;5015148;28;20391;-73
2024/01/19 00:24:52;;;;;;;2.25;0.50;;;0.60;99.90;;;;;;5012322;28;20033;-73
2024/01/19 00:27:18;;;;;;;0.90;0.25;;;0.60;99.90;;;;;;5017530;28;20112;-73
2024/01/19 00:29:43;;;;;;;0.77;0.47;;;0.50;99.90;;;;;;5012678;28;20069;-72
2024/01/19 00:32:10;;;;;;;2.05;0.25;;;0.50;99.90;;;;;;5014190;28;20042;-73
2024/01/19 00:34:36;;;;;;;1.40;0.50;;;0.50;99.90;;;;;;5016917;28;20045;-73
2024/01/19 00:37:01;;;;;;;4.25;0.30;;;0.40;99.90;;;;;;5025790;28;20037;-72
2024/01/19 00:39:27;;;;;;;3.67;0.80;;;0.40;99.90;;;;;;5010153;28;20042;-73
2024/01/19 00:41:52;;;;;;;1.02;0.30;;;0.40;99.90;;;;;;5020997;28;20052;-73
2024/01/19 00:44:18;;;;;;;0.60;0.13;;;0.40;99.90;;;;;;5024843;28;20029;-72
2024/01/19 00:46:43;;;;;;;0.52;0.10;;;0.30;99.90;;;;;;5018522;28;20060;-73
2024/01/19 00:49:09;;;;;;;0.85;0.30;;;0.30;99.90;;;;;;5033317;28;20048;-72
2024/01/19 00:51:34;;;;;;;1.42;0.10;;;0.30;99.90;;;;;;5017320;28;20037;-71
2024/01/19 00:54:00;;;;;;;3.08;0.20;;;0.30;99.90;;;;;;5024669;28;20038;-72
2024/01/19 00:56:25;;;;;;;3.28;0.20;;;0.40;99.90;;;;;;5018055;28;20038;-73
2024/01/19 00:58:51;;;;;;;2.83;0.43;;;0.40;99.90;;;;;;5014466;28;20042;-72
2024/01/19 01:01:16;;;;;;;3.65;0.20;;;0.30;99.90;;;;;;5020596;28;20051;-71
2024/01/19 01:03:42;;;;;;;0.68;0.38;;;0.30;99.90;;;;;;5017800;28;20026;-75
2024/01/19 01:06:07;;;;;;;2.28;0.30;;;0.30;99.90;;;;;;5024970;28;20034;-73
2024/01/19 01:08:35;;;;;;;0.30;0.20;;;0.30;99.90;;;;;;5011931;28;20034;-73
2024/01/19 01:11:00;;;;;;;6.55;0.70;;;0.30;99.90;;;;;;5016815;28;20063;-73
2024/01/19 01:13:26;;;;;;;1.60;0.28;;;0.20;99.90;;;;;;5016697;28;20057;-73
2024/01/19 01:15:51;;;;;;;4.18;0.68;;;0.20;99.90;;;;;;5024036;28;20041;-74
2024/01/19 01:18:19;;;;;;;3.47;0.45;;;0.10;99.90;;;;;;5021429;28;20033;-74
2024/01/19 01:20:44;;;;;;;3.85;0.85;;;0.10;99.90;;;;;;5016059;28;20441;-75
2024/01/19 01:23:10;;;;;;;0.90;0.50;;;0.10;99.90;;;;;;5013885;28;20034;-69
2024/01/19 01:25:35;;;;;;;4.95;0.63;;;0.00;99.90;;;;;;5023574;28;20030;-72
2024/01/19 01:28:02;;;;;;;7.30;1.23;;;0.00;99.90;;;;;;5019712;28;20037;-72
2024/01/19 01:30:27;;;;;;;6.65;0.65;;;0.00;99.90;;;;;;5021268;28;20056;-73
2024/01/19 01:32:53;;;;;;;2.15;0.20;;;0.00;99.90;;;;;;5023396;28;20060;-72
2024/01/19 01:35:19;;;;;;;4.13;1.20;;;0.00;99.90;;;;;;5020610;28;20386;-73
2024/01/19 01:37:44;;;;;;;3.45;0.57;;;-0.10;99.90;;;;;;5013926;28;20490;-75
2024/01/19 01:40:11;;;;;;;3.05;0.70;;;-0.10;99.90;;;;;;5022740;28;20116;-72
2024/01/19 01:42:37;;;;;;;2.90;0.60;;;-0.10;99.90;;;;;;5016150;28;20038;-73
2024/01/19 01:45:04;;;;;;;1.77;0.47;;;-0.10;99.90;;;;;;5034195;28;20033;-72
2024/01/19 01:47:29;;;;;;;2.85;0.47;;;-0.10;99.90;;;;;;5017328;28;20039;-72
2024/01/19 01:49:55;;;;;;;1.30;0.60;;;-0.10;99.90;;;;;;5015994;28;20158;-73
2024/01/19 01:52:21;;;;;;;3.33;0.45;;;-0.20;99.90;;;;;;5020963;28;20493;-73
2024/01/19 01:54:47;;;;;;;4.00;0.70;;;-0.20;99.90;;;;;;5024471;28;20037;-73
2024/01/19 01:57:17;;;;;;;6.07;0.52;;;-0.20;99.90;;;;;;5021930;28;20041;-73
2024/01/19 01:59:42;;;;;;;1.90;0.40;;;-0.30;99.90;;;;;;5014754;28;20128;-73
2024/01/19 02:02:08;;;;;;;2.15;0.95;;;-0.30;99.90;;;;;;5018634;28;20120;-73
2024/01/19 02:04:34;;;;;;;2.53;0.50;;;-0.30;99.90;;;;;;5008907;28;20025;-73
2024/01/19 02:07:00;;;;;;;2.13;0.65;;;-0.30;99.90;;;;;;5008305;28;20042;-73
2024/01/19 02:09:26;;;;;;;4.47;0.40;;;-0.30;99.90;;;;;;5024466;28;20025;-74
2024/01/19 02:11:52;;;;;;;2.03;0.35;;;-0.30;99.90;;;;;;5016133;28;20091;-73
2024/01/19 02:14:18;;;;;;;4.38;0.65;;;-0.20;99.90;;;;;;5022448;28;20061;-73
2024/01/19 02:16:44;;;;;;;5.30;0.60;;;-0.20;99.90;;;;;;5016160;28;20060;-75
2024/01/19 02:19:09;;;;;;;3.33;0.68;;;-0.20;99.90;;;;;;5009823;28;20029;-73
2024/01/19 02:21:35;;;;;;;2.80;0.95;;;-0.20;99.90;;;;;;5016238;28;20418;-73
2024/01/19 02:24:03;;;;;;;3.42;0.85;;;-0.20;99.90;;;;;;5013778;28;20041;-73
2024/01/19 02:26:34;;;;;;;3.60;0.50;;;-0.20;99.90;;;;;;5025346;28;20021;-75
2024/01/19 02:29:00;;;;;;;2.72;0.90;;;-0.30;99.90;;;;;;5004085;28;20037;-73
2024/01/19 02:31:26;;;;;;;4.68;0.50;;;-0.30;99.90;;;;;;5022955;28;20107;-72
2024/01/19 02:33:51;;;;;;;1.20;0.57;;;-0.30;99.90;;;;;;5012829;28;20065;-71
2024/01/19 02:36:17;;;;;;;2.25;0.60;;;-0.40;99.90;;;;;;5023105;28;20084;-71
2024/01/19 02:38:43;;;;;;;5.70;0.40;;;-0.40;99.90;;;;;;5018405;28;20087;-72
2024/01/19 02:41:09;;;;;;;0.85;0.40;;;-0.40;99.90;;;;;;5018836;28;20038;-73
2024/01/19 02:43:35;;;;;;;4.00;0.75;;;-0.40;99.90;;;;;;5012358;28;20405;-75
2024/01/19 02:46:00;;;;;;;3.60;1.38;;;-0.30;99.90;;;;;;5020432;28;20038;-71
2024/01/19 02:48:26;;;;;;;4.28;0.60;;;-0.30;99.90;;;;;;5017187;28;20038;-73
2024/01/19 02:50:51;;;;;;;3.10;0.95;;;-0.30;99.90;;;;;;5006777;28;20033;-73
2024/01/19 02:53:17;;;;;;;6.35;1.67;;;-0.30;99.90;;;;;;5024931;28;20044;-73
2024/01/19 02:55:42;;;;;;;2.38;0.68;;;-0.30;99.90;;;;;;5026048;28;20033;-73
2024/01/19 02:58:08;;;;;;;1.13;0.50;;;-0.30;99.90;;;;;;5017134;28;20055;-72
2024/01/19 03:00:33;;;;;;;4.75;1.33;;;-0.30;99.90;;;;;;5015327;28;20086;-73
2024/01/19 03:02:59;;;;;;;5.90;1.90;;;-0.30;99.90;;;;;;5006515;28;20049;-73
2024/01/19 03:05:24;;;;;;;5.60;0.60;;;-0.40;99.90;;;;;;5018490;28;20052;-73
2024/01/19 03:07:50;;;;;;;0.75;0.30;;;-0.40;99.90;;;;;;5020573;28;20045;-70
2024/01/19 03:10:16;;;;;;;5.30;0.68;;;-0.40;99.90;;;;;;5017795;28;20452;-73
2024/01/19 03:12:41;;;;;;;1.77;0.32;;;-0.40;99.90;;;;;;5014483;28;20038;-73
2024/01/19 03:15:07;;;;;;;4.93;0.65;;;-0.50;99.90;;;;;;5017004;28;20018;-72
2024/01/19 03:17:33;;;;;;;5.90;0.60;;;-0.50;99.90;;;;;;5023768;28;20052;-72
2024/01/19 03:19:59;;;;;;;4.85;1.23;;;-0.50;99.90;;;;;;5015072;28;20494;-72
2024/01/19 03:22:25;;;;;;;1.35;0.50;;;-0.60;99.90;;;;;;5022072;28;20037;-72
2024/01/19 03:24:50;;;;;;;4.13;0.60;;;-0.60;99.90;;;;;;5017575;28;20402;-73
2024/01/19 03:27:16;;;;;;;11.77;1.00;;;-0.60;99.90;;;;;;5018978;28;20041;-72
2024/01/19 03:29:42;;;;;;;1.75;0.60;;;-0.60;99.90;;;;;;5015237;28;20065;-73
2024/01/19 03:32:07;;;;;;;2.90;0.77;;;-0.60;99.90;;;;;;5016594;28;20096;-72
2024/01/19 03:34:33;;;;;;;3.03;0.90;;;-0.50;99.90;;;;;;5015934;28;20048;-72
2024/01/19 03:37:03;;;;;;;9.93;1.02;;;-0.50;99.90;;;;;;5009549;28;20278;-72
2024/01/19 03:39:30;;;;;;;2.85;0.70;;;-0.50;99.90;;;;;;5009034;28;20034;-72
2024/01/19 03:41:55;;;;;;;2.35;0.65;;;-0.50;99.90;;;;;;5004974;28;20041;-71
2024/01/19 03:44:23;;;;;;;4.75;0.98;;;-0.50;99.90;;;;;;5013903;28;20865;-71
2024/01/19 03:46:49;;;;;;;7.68;0.77;;;-0.50;99.90;;;;;;5014887;28;20034;-73
2024/01/19 03:49:15;;;;;;;5.25;1.60;;;-0.50;99.90;;;;;;5014008;28;20098;-72
2024/01/19 03:51:57;;;;;;;4.47;1.25;;;-0.50;99.90;;;;;;5011529;28;20482;-73
2024/01/19 03:54:22;;;;;;;6.18;0.90;;;-0.50;99.90;;;;;;5009708;28;20025;-72
2024/01/19 03:56:48;;;;;;;3.05;1.08;;;-0.50;99.90;;;;;;5015260;28;20042;-73
2024/01/19 03:59:13;;;;;;;3.78;0.98;;;-0.50;99.90;;;;;;5013787;28;20041;-72
2024/01/19 04:01:39;;;;;;;3.65;0.90;;;-0.50;99.90;;;;;;5016123;28;20096;-72
2024/01/19 04:04:05;;;;;;;5.10;1.70;;;-0.50;99.90;;;;;;5014782;28;20072;-72
2024/01/19 04:06:30;;;;;;;7.82;1.40;;;-0.50;99.90;;;;;;5010868;28;20513;-72
2024/01/19 04:08:56;;;;;;;2.50;0.75;;;-0.50;99.90;;;;;;5011573;28;20038;-72
2024/01/19 04:11:21;;;;;;;8.50;1.25;;;-0.40;99.90;;;;;;5014869;28;20061;-71
2024/01/19 04:13:47;;;;;;;3.28;1.08;;;-0.30;99.90;;;;;;5009207;28;20129;-71
2024/01/19 04:16:12;;;;;;;4.95;1.25;;;-0.20;99.90;;;;;;5014642;28;20107;-72
2024/01/19 04:18:38;;;;;;;6.95;2.33;;;-0.10;99.90;;;;;;5013840;28;20919;-71
2024/01/19 04:21:03;;;;;;;3.45;0.98;;;0.10;99.90;;;;;;5010558;28;20042;-73
2024/01/19 04:23:29;;;;;;;5.05;0.90;;;0.30;99.90;;;;;;5014135;28;20555;-71
2024/01/19 04:25:54;;;;;;;2.28;0.73;;;0.50;99.90;;;;;;5010013;28;20041;-72
2024/01/19 04:28:20;;;;;;;3.42;0.77;;;0.60;99.90;;;;;;5012115;28;20080;-72
2024/01/19 04:30:45;;;;;;;2.03;0.70;;;0.60;99.90;;;;;;5011185;28;20037;-72
2024/01/19 04:33:11;;;;;;;8.50;1.77;;;0.60;99.90;;;;;;5012875;28;20038;-71
2024/01/19 04:35:36;;;;;;;4.15;0.40;;;0.70;99.90;;;;;;5021918;28;20037;-71
2024/01/19 04:38:02;;;;;;;2.58;0.50;;;0.80;99.90;;;;;;5016385;28;20049;-71
2024/01/19 04:40:27;;;;;;;3.70;0.40;;;0.80;99.90;;;;;;5017417;28;20033;-72
2024/01/19 04:42:53;;;;;;;3.25;0.30;;;0.80;99.90;;;;;;5017018;28;20033;-72
2024/01/19 04:45:18;;;;;;;0.50;0.20;;;0.80;99.90;;;;;;5016903;28;20449;-72
2024/01/19 04:47:44;;;;;;;3.10;0.43;;;0.70;99.90;;;;;;5016240;28;20179;-72
2024/01/19 04:50:09;;;;;;;7.70;0.25;;;0.80;99.90;;;;;;5011569;28;20037;-72
2024/01/19 04:52:35;;;;;;;2.72;0.40;;;0.70;99.90;;;;;;5012852;28;20026;-72
2024/01/19 04:55:02;;;;;;;1.42;0.22;;;0.70;99.90;;;;;;5020163;28;20048;-71
2024/01/19 04:57:27;;;;;;;3.88;0.20;;;0.70;99.90;;;;;;5011910;28;20069;-72
2024/01/19 04:59:53;;;;;;;4.53;0.50;;;0.60;99.90;;;;;;5016780;28;20183;-72
2024/01/19 05:02:19;;;;;;;1.92;0.40;;;0.60;99.90;;;;;;5006285;28;20524;-72
2024/01/19 05:04:44;;;;;;;3.80;0.45;;;0.50;99.90;;;;;;5009317;28;20030;-72
2024/01/19 05:07:10;;;;;;;2.58;0.50;;;0.50;99.90;;;;;;5015239;28;20149;-72
2024/01/19 05:09:35;;;;;;;3.63;0.73;;;0.50;99.90;;;;;;5016405;28;20090;-72
2024/01/19 05:12:01;;;;;;;1.45;0.30;;;0.40;99.90;;;;;;5012374;28;20034;-72
2024/01/19 05:14:26;;;;;;;2.20;0.55;;;0.30;99.90;;;;;;5016290;28;20044;-72
2024/01/19 05:16:52;;;;;;;2.28;0.20;;;0.30;99.90;;;;;;5017201;28;20041;-72
2024/01/19 05:19:17;;;;;;;0.38;0.10;;;0.20;99.90;;;;;;5015515;28;20041;-72
2024/01/19 05:21:43;;;;;;;1.90;0.30;;;0.10;99.90;;;;;;5007947;28;20034;-73
2024/01/19 05:24:09;;;;;;;4.78;0.60;;;0.10;99.90;;;;;;5017696;28;20038;-72
2024/01/19 05:26:34;;;;;;;1.75;0.60;;;0.10;99.90;;;;;;5013957;28;20851;-72
2024/01/19 05:29:00;;;;;;;3.33;0.40;;;0.00;99.90;;;;;;5011753;28;20046;-72
2024/01/19 05:31:25;;;;;;;1.90;0.20;;;0.00;99.90;;;;;;5020501;28;20033;-72
2024/01/19 05:33:51;;;;;;;2.13;0.30;;;0.00;99.90;;;;;;5018682;28;20465;-72
2024/01/19 05:36:16;;;;;;;2.30;0.35;;;-0.10;99.90;;;;;;5014559;28;20048;-72
2024/01/19 05:38:42;;;;;;;1.80;0.38;;;-0.10;99.90;;;;;;5010780;28;20410;-75
2024/01/19 05:41:07;;;;;;;2.83;0.40;;;-0.20;99.90;;;;;;5015750;28;20029;-72
2024/01/19 05:43:33;;;;;;;2.33;0.30;;;-0.20;99.90;;;;;;5021113;28;20033;-72
2024/01/19 05:45:58;;;;;;;1.48;0.60;;;-0.30;99.90;;;;;;5017405;28;20120;-72
2024/01/19 05:48:25;;;;;;;0.77;0.10;;;-0.30;99.90;;;;;;5016963;28;20033;-72
2024/01/19 05:50:50;;;;;;;4.18;0.50;;;-0.40;99.90;;;;;;5015339;28;20037;-73
2024/01/19 05:53:16;;;;;;;2.10;0.50;;;-0.40;99.90;;;;;;5012647;28;20041;-72
2024/01/19 05:55:42;;;;;;;5.18;0.52;;;-0.40;99.90;;;;;;5022544;28;20033;-72
2024/01/19 05:58:08;;;;;;;5.40;0.52;;;-0.50;99.90;;;;;;5013661;28;20026;-72
2024/01/19 06:00:34;;;;;;;4.53;0.65;;;-0.50;99.90;;;;;;5019919;28;20052;-72
2024/01/19 06:02:59;;;;;;;4.65;0.88;;;-0.50;99.90;;;;;;5012361;28;20037;-72
2024/01/19 06:05:25;;;;;;;6.88;1.05;;;-0.60;99.90;;;;;;5013233;28;20057;-72
2024/01/19 06:07:50;;;;;;;3.47;0.98;;;-0.60;99.90;;;;;;5015934;28;20065;-72
2024/01/19 06:10:16;;;;;;;3.47;1.02;;;-0.60;99.90;;;;;;5013006;28;20037;-72
2024/01/19 06:12:41;;;;;;;4.32;0.65;;;-0.70;99.90;;;;;;5014881;28;20042;-72
2024/01/19 06:15:07;;;;;;;2.33;0.65;;;-0.70;99.90;;;;;;5023174;28;20611;-72
2024/01/19 06:17:33;;;;;;;3.88;0.70;;;-0.70;99.90;;;;;;5015704;28;20047;-72
2024/01/19 06:19:58;;;;;;;3.03;1.00;;;-0.70;99.90;;;;;;5011553;28;20048;-72
2024/01/19 06:22:24;;;;;;;3.65;1.25;;;-0.70;99.90;;;;;;5021743;28;20034;-72
2024/01/19 06:24:54;;;;;;;2.72;1.23;;;-0.70;99.90;;;;;;5014236;28;20040;-72
2024/01/19 06:27:20;;;;;;;4.45;1.20;;;-0.80;99.90;;;;;;5021835;28;20052;-72
2024/01/19 06:29:46;;;;;;;6.57;1.20;;;-0.80;99.90;;;;;;5017703;28;20029;-73
2024/01/19 06:32:13;;;;;;;5.22;1.17;;;-0.80;99.90;;;;;;5020871;28;20034;-72
2024/01/19 06:34:40;;;;;;;7.15;1.25;;;-0.80;99.90;;;;;;5019798;28;20047;-72
2024/01/19 06:37:05;;;;;;;3.28;0.82;;;-0.90;99.90;;;;;;5018603;28;20095;-73
2024/01/19 06:39:31;;;;;;;2.05;0.68;;;-0.90;99.90;;;;;;5012785;28;20402;-73
2024/01/19 06:41:56;;;;;;;4.53;0.68;;;-0.90;99.90;;;;;;5004883;28;20049;-72
2024/01/19 06:44:22;;;;;;;4.68;1.15;;;-0.90;99.90;;;;;;5011038;28;20034;-73
2024/01/19 06:46:47;;;;;;;3.20;0.70;;;-0.90;99.90;;;;;;5019535;28;20042;-74
2024/01/19 06:49:14;;;;;;;3.28;0.93;;;-0.90;99.90;;;;;;5019964;28;20378;-73
2024/01/19 06:51:39;;;;;;;4.05;0.88;;;-0.90;99.90;;;;;;5015222;28;20061;-73
2024/01/19 06:54:05;;;;;;;4.20;0.73;;;-0.90;99.90;;;;;;5020774;28;20067;-73
2024/01/19 06:56:30;;;;;;;4.95;1.10;;;-0.90;99.90;;;;;;5022862;28;20057;-73
2024/01/19 06:58:56;;;;;;;8.15;1.63;;;-0.90;99.90;;;;;;5024758;28;20120;-73
2024/01/19 07:01:23;;;;;;;8.07;1.55;;;-0.90;99.90;;;;;;5024349;28;20459;-73
2024/01/19 07:03:48;;;;;;;3.47;1.00;;;-0.90;99.90;;;;;;5013446;28;20033;-73
2024/01/19 07:06:14;;;;;;;7.03;1.48;;;-0.90;99.90;;;;;;5021808;28;20030;-73
2024/01/19 07:08:39;;;;;;;4.25;1.10;;;-0.90;99.90;;;;;;5016689;28;20042;-73
2024/01/19 07:11:05;;;;;;;8.80;1.45;;;-0.90;99.90;;;;;;5015071;28;20453;-73
2024/01/19 07:13:30;;;;;;;7.47;1.83;;;-0.90;99.90;;;;;;5020914;28;20111;-73
2024/01/19 07:15:56;;;;;;;11.43;2.15;;;-0.90;99.90;;;;;;5022545;28;20063;-72
2024/01/19 07:18:22;;;;;;;6.53;1.67;;;-0.90;99.90;;;;;;5021681;28;20057;-72
2024/01/19 07:20:47;;;;;;;12.50;2.53;;;-0.90;99.90;;;;;;5015047;28;20888;-73
2024/01/19 07:23:13;;;;;;;10.65;2.47;;;-0.90;99.90;;;;;;5013929;28;20036;-73
2024/01/19 07:25:39;;;;;;;6.32;1.90;;;-0.90;99.90;;;;;;5018116;28;20033;-73
2024/01/19 07:28:05;;;;;;;5.07;2.05;;;-0.80;99.90;;;;;;5017285;28;20029;-73
2024/01/19 07:30:31;;;;;;;9.02;1.65;;;-0.80;99.90;;;;;;5008413;28;20735;-73
2024/01/19 07:32:57;;;;;;;9.07;1.80;;;-0.80;99.90;;;;;;5008188;28;20049;-73
2024/01/19 07:35:23;;;;;;;5.18;1.52;;;-0.80;99.90;;;;;;5024700;28;20029;-73
2024/01/19 07:37:48;;;;;;;9.40;1.90;;;-0.80;99.90;;;;;;5001893;28;20037;-73
2024/01/19 07:40:14;;;;;;;4.55;2.05;;;-0.80;99.90;;;;;;5033619;28;20149;-73
2024/01/19 07:42:39;;;;;;;7.53;2.22;;;-0.80;99.90;;;;;;5018296;28;20095;-72
2024/01/19 07:45:05;;;;;;;4.57;1.63;;;-0.80;99.90;;;;;;5014778;28;20044;-74
2024/01/19 07:47:32;;;;;;;6.60;2.38;;;-0.80;99.90;;;;;;5018634;28;20033;-72
2024/01/19 07:49:58;;;;;;;4.65;2.20;;;-0.80;99.90;;;;;;5014077;28;20045;-72
2024/01/19 07:52:23;;;;;;;9.05;2.65;;;-0.70;99.90;;;;;;5021481;28;20033;-74
2024/01/19 07:54:49;;;;;;;6.28;1.95;;;-0.60;99.90;;;;;;5013243;28;20486;-73
2024/01/19 07:57:14;;;;;;;4.55;2.33;;;-0.60;99.90;;;;;;5015699;28;20478;-73
2024/01/19 07:59:41;;;;;;;7.60;3.33;;;-0.50;99.90;;;;;;5014793;28;20038;-72
2024/01/19 08:02:07;;;;;;;5.88;2.25;;;-0.50;99.90;;;;;;5016637;28;20045;-73
2024/01/19 08:04:33;;;;;;;6.13;2.70;;;-0.50;99.90;;;;;;5017590;28;20779;-73
2024/01/19 08:06:58;;;;;;;5.75;2.13;;;-0.50;99.90;;;;;;5030328;28;20060;-73
2024/01/19 08:09:24;;;;;;;6.57;2.42;;;-0.50;99.90;;;;;;5005776;28;20057;-73
2024/01/19 08:11:49;;;;;;;4.57;2.53;;;-0.50;99.90;;;;;;5015691;28;20036;-73
2024/01/19 08:14:15;;;;;;;7.25;2.80;;;-0.50;99.90;;;;;;5016369;28;20033;-73
2024/01/19 08:16:43;;;;;;;5.43;2.28;;;-0.50;99.90;;;;;;5022132;28;20118;-72
2024/01/19 08:19:09;;;;;;;12.30;3.03;;;-0.50;99.90;;;;;;5026975;28;20021;-73
2024/01/19 08:21:43;;;;;;;6.03;2.63;;;-0.50;99.90;;;;;;5023772;28;20038;-73
2024/01/19 08:24:09;;;;;;;5.07;2.33;;;-0.50;99.90;;;;;;5021146;28;20036;-73
2024/01/19 08:26:35;;;;;;;9.80;2.22;;;-0.50;99.90;;;;;;5011775;28;20037;-75
2024/01/19 08:29:03;;;;;;;6.97;3.47;;;-0.50;99.90;;;;;;5015130;28;20041;-74
2024/01/19 08:31:30;;;;;;;7.38;2.70;;;-0.50;99.90;;;;;;5024889;28;20045;-75
2024/01/19 08:33:56;;;;;;;2.85;1.70;;;-0.50;99.90;;;;;;5007234;28;20129;-74
2024/01/19 08:36:24;;;;;;;7.20;2.70;;;-0.50;99.90;;;;;;5010462;28;20046;-75
2024/01/19 08:38:50;;;;;;;6.88;2.72;;;-0.50;99.90;;;;;;5008655;28;20026;-74
2024/01/19 08:41:16;;;;;;;6.88;2.58;;;-0.50;99.90;;;;;;5022024;28;20059;-74
2024/01/19 08:43:42;;;;;;;5.75;3.10;;;-0.50;99.90;;;;;;5012970;28;20049;-75
2024/01/19 08:46:07;;;;;;;6.57;2.88;;;-0.40;99.90;;;;;;5013124;28;20034;-75
2024/01/19 08:48:33;;;;;;;6.40;1.98;;;-0.40;99.90;;;;;;5015887;28;20042;-74
2024/01/19 08:50:59;;;;;;;10.45;2.03;;;-0.40;99.90;;;;;;5022421;28;20049;-74
2024/01/19 08:53:25;;;;;;;9.25;2.05;;;-0.40;99.90;;;;;;5013035;28;20046;-74
2024/01/19 08:55:50;;;;;;;8.90;2.92;;;-0.30;99.90;;;;;;5024635;28;20041;-72
2024/01/19 08:58:16;;;;;;;8.65;2.08;;;-0.30;99.90;;;;;;5014000;28;20033;-75
2024/01/19 09:00:42;;;;;;;4.50;1.63;;;-0.20;99.90;;;;;;5016699;28;20120;-75
2024/01/19 09:03:08;;;;;;;10.00;2.60;;;-0.20;99.90;;;;;;5012577;28;20026;-73
2024/01/19 09:05:34;;;;;;;4.03;1.48;;;-0.10;99.90;;;;;;5014990;28;20030;-73
2024/01/19 09:08:00;;;;;;;6.47;1.80;;;-0.10;99.90;;;;;;5016921;28;20112;-74
2024/01/19 09:10:26;;;;;;;11.23;1.80;;;0.00;99.90;;;;;;5025544;28;20121;-72
2024/01/19 09:12:52;;;;;;;4.30;1.85;;;0.10;99.90;;;;;;5021636;28;20501;-74
2024/01/19 09:15:17;;;;;;;9.90;1.83;;;0.20;99.90;;;;;;5013378;28;20056;-74
2024/01/19 09:17:43;;;;;;;6.78;1.70;;;0.30;99.90;;;;;;5023111;28;20053;-76
2024/01/19 09:20:10;;;;;;;7.97;2.05;;;0.40;99.90;;;;;;5012924;28;20029;-75
2024/01/19 09:22:35;;;;;;;4.45;1.52;;;0.50;99.90;;;;;;5023821;28;20048;-72
2024/01/19 09:25:01;;;;;;;11.93;2.38;;;0.50;99.90;;;;;;5011708;28;20750;-73
2024/01/19 09:27:27;;;;;;;8.80;2.35;;;0.60;99.90;;;;;;5025113;28;20448;-72
2024/01/19 09:29:53;;;;;;;10.65;2.20;;;0.70;99.90;;;;;;5025963;28;20045;-73
2024/01/19 09:32:18;;;;;;;6.78;2.42;;;0.70;99.90;;;;;;5024769;28;20033;-72
2024/01/19 09:34:45;;;;;;;5.55;1.52;;;0.80;99.90;;;;;;5016634;28;20164;-72
2024/01/19 09:37:10;;;;;;;6.15;2.40;;;0.80;99.90;;;;;;5020723;28;20417;-72
2024/01/19 09:39:36;;;;;;;5.40;1.80;;;0.90;99.90;;;;;;5017589;28;20029;-74
2024/01/19 09:42:11;;;;;;;9.50;2.42;;;1.00;99.90;;;;;;5025439;28;20033;-72
2024/01/19 09:44:37;;;;;;;6.85;2.28;;;1.10;99.90;;;;;;5024762;28;20037;-73
2024/01/19 09:47:20;;;;;;;7.97;2.63;;;1.20;99.90;;;;;;5023380;28;20029;-72
2024/01/19 09:49:46;;;;;;;7.22;2.13;;;1.20;99.90;;;;;;5024104;28;20033;-72
2024/01/19 09:52:30;;;;;;;4.65;1.65;;;1.30;99.90;;;;;;5026390;28;20124;-74
2024/01/19 09:54:56;;;;;;;4.85;2.15;;;1.40;99.90;;;;;;5025002;28;20102;-72
2024/01/19 09:57:21;;;;;;;4.43;1.95;;;1.40;99.90;;;;;;5039377;28;20030;-73
2024/01/19 09:59:47;;;;;;;5.18;2.03;;;1.40;99.90;;;;;;5024068;28;20030;-73
2024/01/19 10:02:15;;;;;;;6.05;2.72;;;1.50;99.90;;;;;;5024558;28;20044;-73
2024/01/19 10:04:41;;;;;;;11.10;2.67;;;1.50;99.90;;;;;;5017483;28;20056;-73
2024/01/19 10:07:07;;;;;;;12.18;1.80;;;1.50;99.90;;;;;;5009591;28;20037;-72
2024/01/19 10:09:34;;;;;;;5.32;2.00;;;1.60;99.90;;;;;;5011609;28;20402;-74
2024/01/19 10:12:00;;;;;;;6.70;1.60;;;1.80;99.90;;;;;;5005820;28;20038;-72
2024/01/19 10:14:26;;;;;;;6.90;1.92;;;1.90;99.90;;;;;;5026044;28;20095;-72
2024/01/19 10:16:52;;;;;;;4.90;1.42;;;2.10;99.90;;;;;;5019446;28;20045;-71
2024/01/19 10:19:21;;;;;;;5.53;1.60;;;2.10;99.90;;;;;;5016147;28;20033;-73
2024/01/19 10:21:47;;;;;;;7.55;1.92;;;2.10;99.90;;;;;;5017116;28;20869;-74
2024/01/19 10:24:15;;;;;;;9.05;2.30;;;2.10;99.90;;;;;;5019572;28;20028;-73
2024/01/19 10:26:46;;;;;;;8.88;2.83;;;2.10;99.90;;;;;;5019985;28;20041;-73
2024/01/19 10:29:13;;;;;;;4.63;2.40;;;2.20;99.90;;;;;;5010289;28;20494;-73
2024/01/19 10:31:43;;;;;;;7.55;2.60;;;2.20;99.90;;;;;;5008809;28;20084;-73
2024/01/19 10:34:22;;;;;;;23.08;4.05;;;2.20;99.90;;;;;;5020387;28;20561;-74
2024/01/19 10:36:50;;;;;;;8.43;2.95;;;2.20;99.90;;;;;;5024955;28;20052;-74
2024/01/19 10:39:29;;;;;;;9.13;1.95;;;2.20;99.90;;;;;;5013355;28;20120;-73
2024/01/19 10:42:06;;;;;;;10.38;2.10;;;2.30;99.90;;;;;;5018142;28;20046;-74
2024/01/19 10:44:32;;;;;;;7.97;2.83;;;2.30;99.90;;;;;;5037034;28;20037;-75
2024/01/19 10:46:58;;;;;;;11.50;3.05;;;2.30;99.90;;;;;;5019088;28;20046;-74
2024/01/19 10:49:24;;;;;;;9.93;2.10;;;2.30;99.90;;;;;;5010018;28;20033;-73
2024/01/19 10:51:49;;;;;;;6.38;2.00;;;2.40;99.90;;;;;;5022074;28;20513;-74
2024/01/19 10:54:24;;;;;;;7.13;2.30;;;2.40;99.90;;;;;;5014811;28;20049;-74
2024/01/19 10:57:08;;;;;;;12.23;3.28;;;2.40;99.90;;;;;;5017732;28;20132;-74
2024/01/19 10:59:34;;;;;;;6.47;2.10;;;2.50;99.90;;;;;;5009535;28;20056;-74
2024/01/19 11:02:02;;;;;;;9.77;2.22;;;2.50;99.90;;;;;;5021137;28;20045;-74
2024/01/19 11:04:28;;;;;;;5.43;1.60;;;2.50;99.90;;;;;;5012919;28;20037;-73
2024/01/19 11:06:54;;;;;;;10.38;2.80;;;2.60;99.90;;;;;;5006365;28;20565;-75
2024/01/19 11:09:20;;;;;;;7.22;1.85;;;2.90;99.90;;;;;;5014540;28;20026;-75
2024/01/19 11:12:00;;;;;;;12.68;1.98;;;3.40;99.90;;;;;;5011060;28;20033;-74
2024/01/19 11:14:27;;;;;;;8.27;2.40;;;3.90;99.90;;;;;;5017803;28;20045;-75
2024/01/19 11:16:54;;;;;;;11.50;2.25;;;4.30;99.90;;;;;;5007706;28;20037;-74
2024/01/19 11:19:22;;;;;;;9.20;2.90;;;4.60;99.90;;;;;;5014872;28;20031;-74
2024/01/19 11:21:48;;;;;;;4.10;2.00;;;4.50;99.90;;;;;;5015423;28;20737;-75
2024/01/19 11:24:15;;;;;;;5.85;1.95;;;4.30;99.90;;;;;;5004126;28;20059;-74
2024/01/19 11:27:06;;;;;;;4.03;1.75;;;4.10;99.90;;;;;;5012042;28;20788;-73
2024/01/19 11:29:35;;;;;;;5.63;1.92;;;4.10;99.90;;;;;;5012321;28;20030;-72
2024/01/19 11:32:01;;;;;;;14.70;3.42;;;4.50;99.90;;;;;;5005338;28;20065;-73
2024/01/19 11:34:48;;;;;;;9.82;2.20;;;5.00;99.90;;;;;;5013955;28;20029;-73
2024/01/19 11:37:43;;;;;;;10.50;2.40;;;5.40;99.90;;;;;;5014153;28;20045;-73
2024/01/19 11:40:29;;;;;;;12.45;2.58;;;5.50;99.90;;;;;;5018182;28;20470;-74
2024/01/19 11:42:55;;;;;;;9.23;1.98;;;5.30;99.90;;;;;;5023238;28;20065;-73
2024/01/19 11:45:26;;;;;;;6.90;1.60;;;4.90;99.90;;;;;;5025501;28;20057;-72
2024/01/19 11:47:52;;;;;;;4.68;1.70;;;4.60;99.90;;;;;;5014148;28;20034;-73
2024/01/19 11:50:47;;;;;;;10.13;2.50;;;4.30;99.90;;;;;;5030970;28;20037;-73
2024/01/19 11:53:13;;;;;;;4.72;2.08;;;4.10;99.90;;;;;;5046336;28;20044;-72
2024/01/19 11:55:45;;;;;;;14.63;2.25;;;3.90;99.90;;;;;;5027271;28;20043;-73
2024/01/19 11:58:46;;;;;;;6.68;1.85;;;3.80;99.90;;;;;;5014556;28;20041;-73
2024/01/19 12:01:12;;;;;;;4.25;1.77;;;3.70;99.90;;;;;;4966115;28;20708;-72
2024/01/19 12:03:39;;;;;;;9.02;2.15;;;3.60;99.90;;;;;;5002542;28;20037;-72
2024/01/19 12:06:05;;;;;;;6.57;1.83;;;3.60;99.90;;;;;;5035010;28;20034;-72
2024/01/19 12:08:32;;;;;;;6.38;1.70;;;3.50;99.90;;;;;;5005386;28;20521;-72
2024/01/19 12:11:09;;;;;;;7.10;1.98;;;3.50;99.90;;;;;;5009371;28;20037;-73
2024/01/19 12:13:38;;;;;;;5.80;2.20;;;3.50;99.90;;;;;;5007381;28;20095;-72
2024/01/19 12:16:04;;;;;;;4.72;2.00;;;3.40;99.90;;;;;;5008117;28;23200;-72
2024/01/19 12:18:34;;;;;;;5.57;2.22;;;3.50;99.90;;;;;;5007273;28;20394;-72
2024/01/19 12:21:00;;;;;;;6.45;1.95;;;3.40;99.90;;;;;;5013206;28;20571;-72
2024/01/19 12:23:28;;;;;;;9.27;1.85;;;3.40;99.90;;;;;;5009569;28;20116;-72
2024/01/19 12:25:58;;;;;;;6.85;1.73;;;3.50;99.90;;;;;;5008433;28;20019;-72
2024/01/19 12:28:24;;;;;;;23.83;3.23;;;3.40;99.90;;;;;;5015102;28;20076;-72
2024/01/19 12:30:52;;;;;;;4.60;1.40;;;3.40;99.90;;;;;;5007051;28;20053;-73
2024/01/19 12:33:21;;;;;;;5.93;1.60;;;3.40;99.90;;;;;;5007431;28;20065;-74
2024/01/19 12:35:47;;;;;;;7.75;1.85;;;3.40;99.90;;;;;;5022030;28;20498;-72
2024/01/19 12:38:15;;;;;;;9.15;2.42;;;3.40;99.90;;;;;;5006562;28;20117;-72
2024/01/19 12:40:41;;;;;;;6.20;1.75;;;3.40;99.90;;;;;;5010834;28;20056;-72
2024/01/19 12:43:06;;;;;;;5.65;1.60;;;3.50;99.90;;;;;;5009611;28;20033;-72
2024/01/19 12:45:34;;;;;;;5.90;1.77;;;3.50;99.90;;;;;;5015691;28;20034;-73
2024/01/19 12:48:00;;;;;;;6.47;2.08;;;3.40;99.90;;;;;;5007191;28;20038;-73